Time;durP1;ratioP1;P1;durP2;ratioP2;P2;SDS_P1;SDS_P2;PMS_P1;PMS_P2;Temp;Humidity;BMP_temperature;BMP_pressure;BME280_temperature;BME280_humidity;BME280_pressure;Samples;Min_cycle;Max_cycle;Signal;HPM_P1;HPM_P2
2021/01/25 00:03:06;;;;;;;177.50;13.10;;;2.10;99.90;;;;;;8060000;29;20057;-75
2021/01/25 00:07:08;;;;;;;129.57;11.38;;;4.00;99.90;;;;;;8058142;29;20049;-76
2021/01/25 00:11:10;;;;;;;45.28;8.60;;;1.90;99.90;;;;;;8054796;29;20152;-74
2021/01/25 00:15:12;;;;;;;166.32;12.65;;;2.80;99.90;;;;;;8040745;29;20692;-75
2021/01/25 00:19:13;;;;;;;92.18;9.40;;;1.90;99.90;;;;;;8061525;29;20147;-76
2021/01/25 00:23:15;;;;;;;53.50;9.10;;;3.70;99.90;;;;;;8054473;29;20065;-76
2021/01/25 00:27:16;;;;;;;75.23;9.30;;;1.90;99.90;;;;;;8047701;29;20601;-74
2021/01/25 00:31:18;;;;;;;137.60;12.73;;;1.90;99.90;;;;;;8061491;29;20495;-75
2021/01/25 00:35:20;;;;;;;47.03;11.47;;;2.50;99.90;;;;;;8055093;29;20060;-75
2021/01/25 00:39:21;;;;;;;45.55;8.88;;;1.90;99.90;;;;;;8056260;29;20539;-78
2021/01/25 00:43:23;;;;;;;30.73;8.93;;;1.90;99.90;;;;;;8045052;29;20515;-77
2021/01/25 00:47:24;;;;;;;63.28;9.23;;;2.30;99.90;;;;;;8027644;29;20576;-77
2021/01/25 00:51:28;;;;;;;38.25;8.32;;;1.90;99.90;;;;;;8051277;29;20511;-77
2021/01/25 00:55:30;;;;;;;83.15;9.20;;;3.10;99.90;;;;;;8060328;29;20049;-77
2021/01/25 00:59:32;;;;;;;24.55;7.95;;;3.50;99.90;;;;;;8050268;29;20664;-76
2021/01/25 01:03:33;;;;;;;40.53;7.78;;;4.30;99.90;;;;;;8022010;29;20094;-77
2021/01/25 01:07:35;;;;;;;40.00;9.37;;;2.80;99.90;;;;;;8037449;29;20324;-76
2021/01/25 01:11:36;;;;;;;31.85;6.90;;;1.80;99.90;;;;;;8042400;29;20485;-77
2021/01/25 01:15:38;;;;;;;22.00;6.63;;;1.80;99.90;;;;;;8034151;29;20766;-76
2021/01/25 01:19:39;;;;;;;14.27;7.13;;;1.80;99.90;;;;;;8037985;29;20419;-76
2021/01/25 01:23:41;;;;;;;17.30;6.50;;;2.20;99.90;;;;;;8034599;29;21533;-76
2021/01/25 01:27:42;;;;;;;11.40;6.83;;;1.80;99.90;;;;;;8041090;29;20467;-75
2021/01/25 01:31:45;;;;;;;17.70;7.00;;;2.00;99.90;;;;;;8046803;29;20857;-76
2021/01/25 01:35:46;;;;;;;19.48;6.60;;;1.80;99.90;;;;;;8038277;29;20495;-76
2021/01/25 01:39:48;;;;;;;18.20;6.67;;;1.70;99.90;;;;;;8053575;29;20456;-76
2021/01/25 01:43:49;;;;;;;14.40;7.10;;;3.30;99.90;;;;;;8045285;29;20061;-74
2021/01/25 01:47:51;;;;;;;12.20;6.20;;;4.30;99.90;;;;;;8063281;29;20116;-75
2021/01/25 01:51:53;;;;;;;10.13;4.88;;;3.00;99.90;;;;;;8037503;29;20064;-75
2021/01/25 01:55:54;;;;;;;6.83;4.27;;;2.10;99.90;;;;;;8033116;29;20121;-75
2021/01/25 01:59:56;;;;;;;7.45;4.35;;;1.60;99.90;;;;;;8045189;29;21046;-75
2021/01/25 02:03:59;;;;;;;9.35;4.43;;;2.00;99.90;;;;;;8057147;29;20102;-76
2021/01/25 02:08:01;;;;;;;7.60;4.40;;;2.30;99.90;;;;;;8051161;29;20060;-77
2021/01/25 02:12:04;;;;;;;;;;;2.70;99.90;;;;;;8037147;29;20132;-76
2021/01/25 02:16:06;;;;;;;7.30;3.60;;;1.50;99.90;;;;;;8040259;29;19942;-75
2021/01/25 02:20:08;;;;;;;7.50;3.70;;;1.50;99.90;;;;;;8037418;29;20101;-75
2021/01/25 02:24:35;;;;;;;7.03;3.90;;;1.50;99.90;;;;;;8045682;29;20044;-75
2021/01/25 02:28:39;;;;;;;6.95;3.40;;;1.50;99.90;;;;;;8054613;29;20546;-75
2021/01/25 02:32:42;;;;;;;6.40;3.47;;;1.40;99.90;;;;;;8034834;29;20049;-75
2021/01/25 02:36:45;;;;;;;5.28;3.00;;;1.40;99.90;;;;;;8037156;29;20068;-75
2021/01/25 02:40:48;;;;;;;8.45;3.15;;;2.60;99.90;;;;;;8026147;29;22591;-76
2021/01/25 02:44:51;;;;;;;6.63;2.65;;;1.40;99.90;;;;;;8013600;29;20416;-75
2021/01/25 02:48:53;;;;;;;6.70;2.65;;;1.30;99.90;;;;;;8002227;29;20057;-75
2021/01/25 02:52:54;;;;;;;4.25;2.30;;;1.30;99.90;;;;;;8001839;29;20765;-75
2021/01/25 02:56:56;;;;;;;4.55;2.70;;;1.30;99.90;;;;;;7998785;29;20109;-75
2021/01/25 03:00:58;;;;;;;8.93;2.47;;;1.30;99.90;;;;;;8028063;29;20054;-76
2021/01/25 03:05:00;;;;;;;3.60;1.95;;;1.30;99.90;;;;;;7990629;29;20041;-76
2021/01/25 03:09:01;;;;;;;;;;;2.10;99.90;;;;;;8009794;29;20072;-76
2021/01/25 03:13:04;;;;;;;5.20;2.22;;;1.30;99.90;;;;;;7992202;29;19940;-74
2021/01/25 03:17:05;;;;;;;5.57;1.95;;;1.30;99.90;;;;;;8008269;29;20057;-73
2021/01/25 03:21:07;;;;;;;4.80;1.77;;;1.30;99.90;;;;;;8020388;29;20049;-73
2021/01/25 03:25:09;;;;;;;3.42;1.73;;;1.30;99.90;;;;;;8015237;29;20073;-73
2021/01/25 03:29:11;;;;;;;;;;;1.30;99.90;;;;;;8011249;29;20110;-73
2021/01/25 03:33:12;;;;;;;5.82;1.65;;;1.30;99.90;;;;;;8013440;29;19936;-74
2021/01/25 03:37:14;;;;;;;3.65;1.60;;;1.30;99.90;;;;;;8038846;29;20065;-74
2021/01/25 03:41:15;;;;;;;3.80;1.48;;;3.10;99.90;;;;;;8015531;29;20053;-74
2021/01/25 03:45:17;;;;;;;4.40;1.60;;;1.30;99.90;;;;;;8016824;29;20397;-74
2021/01/25 03:49:18;;;;;;;3.03;1.23;;;1.20;99.90;;;;;;8003115;29;20468;-74
2021/01/25 03:53:22;;;;;;;4.60;1.20;;;1.30;99.90;;;;;;8015674;29;20752;-74
2021/01/25 03:57:24;;;;;;;3.72;1.17;;;1.30;99.90;;;;;;8022841;29;20412;-74
2021/01/25 04:01:26;;;;;;;4.03;1.27;;;1.20;99.90;;;;;;8018568;29;20072;-75
2021/01/25 04:05:27;;;;;;;;;;;1.70;99.90;;;;;;8011756;29;20089;-75
2021/01/25 04:09:29;;;;;;;2.38;1.08;;;1.20;99.50;;;;;;8011896;29;20009;-75
2021/01/25 04:13:30;;;;;;;4.97;1.40;;;3.70;99.90;;;;;;8026616;29;20132;-76
2021/01/25 04:17:31;;;;;;;3.13;1.30;;;2.30;99.90;;;;;;8012443;29;20053;-76
2021/01/25 04:21:33;;;;;;;2.28;1.10;;;3.20;99.90;;;;;;8016926;29;20072;-76
2021/01/25 04:25:35;;;;;;;2.30;0.85;;;1.10;99.80;;;;;;7996057;29;20666;-77
2021/01/25 04:29:37;;;;;;;4.27;1.20;;;0.90;99.80;;;;;;8015385;29;20778;-76
2021/01/25 04:33:41;;;;;;;2.42;1.08;;;1.00;99.60;;;;;;8016173;29;20545;-77
2021/01/25 04:37:43;;;;;;;3.70;1.00;;;1.00;99.90;;;;;;8010506;29;20056;-76
2021/01/25 04:41:46;;;;;;;5.22;1.38;;;1.00;99.90;;;;;;7990545;29;20054;-75
2021/01/25 04:45:47;;;;;;;2.15;1.08;;;1.00;99.90;;;;;;8010086;29;20053;-75
2021/01/25 04:49:50;;;;;;;5.00;1.38;;;1.00;99.90;;;;;;8016567;29;20068;-74
2021/01/25 04:53:53;;;;;;;1.70;1.02;;;0.90;99.50;;;;;;8007643;29;24008;-75
2021/01/25 04:57:56;;;;;;;3.10;1.40;;;1.30;99.90;;;;;;7995709;29;20053;-75
2021/01/25 05:01:57;;;;;;;5.50;1.70;;;1.00;99.90;;;;;;7996254;29;20049;-74
2021/01/25 05:06:01;;;;;;;3.40;1.45;;;1.00;99.90;;;;;;8021212;29;20046;-75
2021/01/25 05:10:06;;;;;;;3.90;1.23;;;2.20;99.90;;;;;;8011628;29;20868;-75
2021/01/25 05:14:08;;;;;;;3.22;1.60;;;0.90;99.90;;;;;;8004177;29;20045;-75
2021/01/25 05:18:11;;;;;;;4.30;1.70;;;0.90;99.90;;;;;;7993244;29;20054;-76
2021/01/25 05:22:16;;;;;;;2.92;1.27;;;0.90;99.90;;;;;;8006307;29;20058;-74
2021/01/25 05:26:17;;;;;;;6.40;1.83;;;0.80;99.90;;;;;;8018005;29;20518;-75
2021/01/25 05:30:19;;;;;;;5.63;2.23;;;0.80;99.90;;;;;;8020193;29;20065;-74
2021/01/25 05:34:21;;;;;;;3.80;1.35;;;0.80;99.90;;;;;;8012129;29;20476;-74
2021/01/25 05:38:23;;;;;;;;;;;0.70;99.90;;;;;;8009419;29;20053;-74
2021/01/25 05:42:33;;;;;;;4.28;1.60;;;0.70;99.50;;;;;;8019195;29;19984;-74
2021/01/25 05:46:34;;;;;;;4.45;1.50;;;0.70;99.90;;;;;;8018149;29;20045;-74
2021/01/25 05:50:38;;;;;;;6.03;1.98;;;1.40;99.90;;;;;;8004524;29;20520;-74
2021/01/25 05:54:41;;;;;;;3.55;1.73;;;0.60;99.60;;;;;;7995757;29;20101;-75
2021/01/25 05:58:42;;;;;;;6.07;2.30;;;0.60;99.90;;;;;;7989839;29;20049;-74
2021/01/25 06:02:48;;;;;;;6.38;2.03;;;0.60;99.90;;;;;;8013915;29;20474;-74
2021/01/25 06:07:16;;;;;;;4.75;1.95;;;0.70;99.90;;;;;;8009063;29;20610;-74
2021/01/25 06:11:29;;;;;;;5.07;1.85;;;1.50;99.90;;;;;;8008865;29;20129;-75
2021/01/25 06:15:36;;;;;;;5.32;1.70;;;0.70;99.90;;;;;;7997566;29;20504;-73
2021/01/25 06:19:39;;;;;;;8.50;2.58;;;0.70;99.90;;;;;;8006743;29;21144;-75
2021/01/25 06:23:42;;;;;;;3.35;1.70;;;1.70;99.90;;;;;;7998969;29;20453;-73
2021/01/25 06:27:45;;;;;;;5.07;1.50;;;0.70;99.80;;;;;;8016773;29;20070;-76
2021/01/25 06:31:58;;;;;;;6.13;1.95;;;0.70;99.80;;;;;;8004467;29;20584;-75
2021/01/25 06:35:59;;;;;;;5.88;1.70;;;0.70;99.80;;;;;;7999147;29;20429;-73
2021/01/25 06:40:08;;;;;;;7.47;1.90;;;0.70;99.90;;;;;;8007059;29;20558;-73
2021/01/25 06:44:11;;;;;;;4.70;1.77;;;0.90;99.70;;;;;;8007334;29;20057;-73
2021/01/25 06:48:15;;;;;;;6.07;2.15;;;0.90;99.90;;;;;;8003449;29;20685;-73
2021/01/25 06:52:21;;;;;;;5.68;1.80;;;1.10;99.70;;;;;;7994110;29;20071;-72
2021/01/25 06:56:22;;;;;;;3.97;1.42;;;1.10;99.60;;;;;;8001704;29;20556;-73
2021/01/25 07:00:25;;;;;;;6.35;2.45;;;1.10;99.60;;;;;;8002791;29;20113;-72
2021/01/25 07:04:28;;;;;;;9.63;2.92;;;1.20;99.60;;;;;;8001537;29;20057;-72
2021/01/25 07:08:31;;;;;;;4.47;2.42;;;1.20;99.50;;;;;;8000653;29;20575;-73
2021/01/25 07:12:33;;;;;;;9.38;2.25;;;1.20;99.40;;;;;;7993333;29;20050;-73
2021/01/25 07:16:35;;;;;;;12.57;2.90;;;1.20;99.40;;;;;;8003131;29;20126;-72
2021/01/25 07:20:37;;;;;;;3.78;2.22;;;1.20;99.50;;;;;;8007477;29;20113;-73
2021/01/25 07:24:40;;;;;;;7.90;2.33;;;1.20;99.40;;;;;;8004193;29;20086;-73
2021/01/25 07:28:42;;;;;;;3.83;1.90;;;1.10;99.40;;;;;;8000455;29;21119;-72
2021/01/25 07:32:46;;;;;;;7.10;2.50;;;1.10;99.40;;;;;;7981769;29;20054;-73
2021/01/25 07:36:48;;;;;;;22.83;2.50;;;1.50;99.60;;;;;;8012784;29;20153;-72
2021/01/25 07:40:50;;;;;;;3.83;2.00;;;1.10;99.50;;;;;;7999384;29;20122;-72
2021/01/25 07:44:52;;;;;;;4.35;2.25;;;1.10;99.10;;;;;;7983969;29;20065;-72
2021/01/25 07:48:54;;;;;;;;;;;1.10;99.40;;;;;;8001377;29;20508;-72
2021/01/25 07:53:04;;;;;;;34.38;2.90;;;1.00;99.30;;;;;;8007842;29;19939;-73
2021/01/25 07:57:13;;;;;;;14.00;3.40;;;1.00;99.30;;;;;;8003973;29;20049;-77
2021/01/25 08:01:25;;;;;;;15.60;2.92;;;0.90;99.10;;;;;;7963272;29;20534;-78
2021/01/25 08:05:27;;;;;;;;;;;0.90;99.40;;;;;;8001755;29;20050;-78
2021/01/25 08:09:30;;;;;;;8.20;2.93;;;1.20;99.40;;;;;;7999806;29;20008;-79
2021/01/25 08:13:37;;;;;;;9.85;3.10;;;2.30;99.90;;;;;;7996783;29;20090;-78
2021/01/25 08:17:51;;;;;;;5.40;2.83;;;0.80;99.50;;;;;;8001546;29;20061;-79
2021/01/25 08:22:04;;;;;;;7.35;3.65;;;0.70;99.10;;;;;;8002630;29;20138;-78
2021/01/25 08:26:07;;;;;;;7.80;4.90;;;0.70;99.50;;;;;;8005145;29;20299;-78
2021/01/25 08:30:20;;;;;;;7.20;3.78;;;0.70;99.50;;;;;;7995246;29;20433;-77
2021/01/25 08:34:31;;;;;;;7.10;3.78;;;0.60;99.60;;;;;;8006620;29;20054;-78
2021/01/25 08:38:41;;;;;;;9.43;3.88;;;0.70;99.70;;;;;;8001932;29;20101;-77
2021/01/25 08:42:43;;;;;;;8.75;3.38;;;0.70;99.70;;;;;;8012660;29;20101;-80
2021/01/25 08:46:45;;;;;;;5.97;2.70;;;0.70;99.70;;;;;;8004555;29;20057;-78
2021/01/25 08:50:47;;;;;;;8.10;2.40;;;0.70;99.60;;;;;;8019177;29;20105;-77
2021/01/25 08:54:48;;;;;;;5.90;1.80;;;0.70;99.40;;;;;;8027816;29;20058;-79
2021/01/25 08:58:50;;;;;;;7.07;3.22;;;0.60;99.70;;;;;;8033724;29;20469;-79
2021/01/25 09:02:57;;;;;;;4.10;1.60;;;0.70;99.70;;;;;;8039904;29;20059;-79
2021/01/25 09:06:59;;;;;;;27.25;16.50;;;2.10;99.90;;;;;;8043704;29;20058;-78
2021/01/25 09:11:00;;;;;;;14.30;8.90;;;0.80;99.70;;;;;;8035146;29;20151;-78
2021/01/25 09:19:52;;;;;;;30.77;18.00;;;0.90;99.50;;;;;;7988457;23;20126;-78
2021/01/25 09:23:53;;;;;;;14.20;9.23;;;0.90;99.80;;;;;;7970616;29;20621;-78
2021/01/25 09:27:55;;;;;;;15.55;8.38;;;1.10;99.90;;;;;;7944486;29;20118;-78
2021/01/25 09:31:57;;;;;;;8.68;5.47;;;1.10;99.70;;;;;;7950871;29;20054;-78
2021/01/25 09:35:58;;;;;;;12.63;6.75;;;1.10;99.60;;;;;;7953600;29;20065;-78
2021/01/25 09:40:00;;;;;;;9.30;4.10;;;1.30;99.80;;;;;;7975249;29;20078;-78
2021/01/25 09:44:03;;;;;;;7.35;2.72;;;1.20;99.80;;;;;;7946969;29;20829;-78
2021/01/25 09:48:08;;;;;;;4.72;2.83;;;1.80;99.90;;;;;;7979612;29;20535;-78
2021/01/25 09:52:10;;;;;;;10.20;4.60;;;1.20;99.90;;;;;;7949523;29;20050;-78
2021/01/25 09:56:11;;;;;;;6.67;2.53;;;1.20;99.80;;;;;;7948543;29;20046;-78
2021/01/25 10:00:14;;;;;;;12.43;4.30;;;2.40;99.90;;;;;;7951219;29;20478;-79
2021/01/25 10:04:16;;;;;;;7.07;2.75;;;1.30;99.90;;;;;;7959702;29;20042;-78
2021/01/25 10:08:17;;;;;;;6.68;1.92;;;2.10;99.90;;;;;;7951327;29;20569;-78
2021/01/25 10:12:19;;;;;;;4.88;2.10;;;1.40;99.90;;;;;;7949560;29;20048;-78
2021/01/25 10:16:20;;;;;;;4.90;1.20;;;1.40;99.90;;;;;;7948400;29;20066;-78
2021/01/25 10:20:22;;;;;;;5.30;2.55;;;1.50;99.90;;;;;;7968004;29;20051;-78
2021/01/25 10:24:23;;;;;;;4.53;1.73;;;1.50;99.80;;;;;;7959193;29;20079;-78
2021/01/25 10:28:25;;;;;;;5.53;3.57;;;1.60;99.90;;;;;;7966156;29;20150;-78
2021/01/25 10:32:27;;;;;;;4.13;1.65;;;1.60;99.90;;;;;;7960457;29;20499;-78
2021/01/25 10:36:29;;;;;;;8.48;1.50;;;1.60;99.90;;;;;;7978336;29;20074;-78
2021/01/25 10:40:30;;;;;;;3.83;1.90;;;1.90;99.90;;;;;;7954519;29;20054;-78
2021/01/25 10:44:32;;;;;;;5.40;1.58;;;1.70;99.90;;;;;;7975984;29;20048;-78
2021/01/25 10:48:33;;;;;;;2.53;1.20;;;1.80;99.90;;;;;;7962110;29;20066;-78
2021/01/25 10:52:35;;;;;;;6.82;5.03;;;1.80;99.90;;;;;;7958864;29;20482;-79
2021/01/25 10:56:36;;;;;;;23.57;15.37;;;1.90;99.90;;;;;;7925814;29;20518;-79
2021/01/25 11:00:38;;;;;;;9.63;6.03;;;2.00;99.90;;;;;;7939525;29;20042;-79
2021/01/25 11:04:39;;;;;;;3.87;2.63;;;3.90;99.90;;;;;;7938896;29;20054;-78
2021/01/25 11:08:41;;;;;;;2.90;0.50;;;2.10;99.90;;;;;;7928807;29;20482;-79
2021/01/25 11:12:43;;;;;;;1.70;0.95;;;2.10;99.90;;;;;;7954550;29;20538;-78
2021/01/25 11:16:44;;;;;;;2.03;0.80;;;2.00;99.90;;;;;;7958791;29;20085;-78
2021/01/25 11:20:49;;;;;;;8.75;4.55;;;2.20;99.90;;;;;;7956380;29;20058;-78
2021/01/25 11:54:28;;;;;;;2.45;0.60;;;3.00;99.90;;;;;;8110290;23;20165;-76
2021/01/25 11:58:30;;;;;;;2.25;0.50;;;5.00;99.90;;;;;;8002011;29;20089;-76
2021/01/25 12:02:32;;;;;;;;;;;2.80;99.90;;;;;;8015155;29;20152;-77
2021/01/25 12:06:34;;;;;;;0.90;0.40;;;1.90;99.90;;;;;;8013347;29;19924;-76
2021/01/25 12:10:36;;;;;;;1.90;0.40;;;5.80;99.90;;;;;;8029825;29;20068;-76
2021/01/25 12:14:38;;;;;;;1.52;0.30;;;3.90;99.90;;;;;;8015123;29;20082;-77
2021/01/25 12:18:47;;;;;;;1.50;0.40;;;4.00;99.90;;;;;;8017532;29;20883;-78
2021/01/25 12:22:49;;;;;;;1.88;0.50;;;3.00;99.90;;;;;;8043443;29;20109;-77
2021/01/25 12:26:50;;;;;;;1.35;0.38;;;3.60;99.90;;;;;;8015989;29;20141;-77
2021/01/25 12:30:53;;;;;;;0.60;0.32;;;4.40;99.90;;;;;;8014899;29;20144;-78
2021/01/25 12:34:54;;;;;;;0.60;0.30;;;2.90;99.90;;;;;;7994365;29;20057;-77
2021/01/25 12:38:58;;;;;;;1.90;0.40;;;2.80;99.90;;;;;;7965705;29;20109;-78
2021/01/25 12:43:00;;;;;;;1.25;0.30;;;3.00;99.90;;;;;;8017977;29;20054;-78
2021/01/25 12:47:03;;;;;;;0.38;0.30;;;3.10;99.90;;;;;;8025824;29;20071;-78
2021/01/25 12:51:05;;;;;;;2.42;0.75;;;3.20;99.90;;;;;;8012741;29;20667;-78
2021/01/25 12:55:10;;;;;;;144.23;40.83;;;3.20;99.90;;;;;;8018283;29;20128;-78
2021/01/25 12:59:12;;;;;;;18.65;5.38;;;3.30;99.90;;;;;;8047273;29;20113;-79
2021/01/25 13:09:05;;;;;;;4.00;1.80;;;3.30;99.90;;;;;;8436575;23;20054;-82
2021/01/25 13:13:09;;;;;;;2.53;0.93;;;6.20;99.90;;;;;;8022417;29;20140;-79
2021/01/25 13:17:11;;;;;;;3.20;0.60;;;5.40;99.90;;;;;;8031884;29;20050;-80
2021/01/25 13:21:13;;;;;;;1.70;0.57;;;6.20;99.90;;;;;;8050469;29;20054;-79
2021/01/25 13:25:15;;;;;;;3.13;0.57;;;5.90;99.90;;;;;;8063042;29;20057;-79
2021/01/25 13:29:17;;;;;;;;;;;3.70;99.90;;;;;;8014416;29;20068;-79
2021/01/25 13:33:18;;;;;;;0.93;0.30;;;6.40;99.90;;;;;;8031802;29;19924;-79
2021/01/25 13:37:21;;;;;;;2.28;0.50;;;5.10;99.90;;;;;;8054648;29;20057;-80
2021/01/25 13:41:22;;;;;;;1.38;0.50;;;4.00;99.90;;;;;;8035461;29;20105;-80
2021/01/25 13:45:27;;;;;;;0.77;0.38;;;6.20;99.90;;;;;;8054840;29;20072;-80
2021/01/25 13:49:33;;;;;;;3.03;0.40;;;5.20;99.90;;;;;;8054113;29;20052;-80
2021/01/25 13:53:35;;;;;;;0.98;0.50;;;6.00;99.90;;;;;;8061266;29;20379;-79
2021/01/25 13:57:36;;;;;;;0.50;0.30;;;4.20;99.90;;;;;;8041024;29;20061;-79
2021/01/25 14:01:38;;;;;;;1.38;0.40;;;5.20;99.90;;;;;;8037756;29;20132;-82
2021/01/25 14:05:41;;;;;;;2.72;0.40;;;5.50;99.90;;;;;;8018216;29;20045;-82
2021/01/25 14:09:42;;;;;;;2.47;0.50;;;5.80;99.90;;;;;;8039506;29;20060;-79
2021/01/25 14:13:44;;;;;;;2.83;0.50;;;6.20;99.90;;;;;;8025722;29;20061;-82
2021/01/25 14:17:45;;;;;;;1.63;0.47;;;5.50;99.90;;;;;;8034262;29;20045;-79
2021/01/25 14:21:47;;;;;;;1.63;0.52;;;3.80;99.90;;;;;;8024881;29;20592;-82
2021/01/25 14:25:48;;;;;;;2.43;0.80;;;6.00;99.90;;;;;;8023660;29;20063;-79
2021/01/25 14:29:50;;;;;;;1.60;0.70;;;4.00;99.70;;;;;;8024784;29;20054;-79
2021/01/25 14:33:52;;;;;;;3.33;0.80;;;4.00;99.20;;;;;;8010076;29;20065;-80
2021/01/25 14:37:54;;;;;;;2.33;0.93;;;4.00;99.80;;;;;;8011863;29;21853;-79
2021/01/25 14:41:56;;;;;;;24.03;10.00;;;5.00;99.90;;;;;;8013101;29;20053;-80
2021/01/25 14:45:57;;;;;;;8.27;2.28;;;4.00;99.40;;;;;;8018470;29;20420;-80
2021/01/25 14:49:59;;;;;;;63.40;27.33;;;3.90;99.90;;;;;;8021438;29;20061;-79
2021/01/25 14:54:00;;;;;;;8.03;3.37;;;4.10;99.70;;;;;;8043976;29;20144;-80
2021/01/25 14:58:02;;;;;;;62.15;29.08;;;6.60;99.90;;;;;;8007267;29;20064;-81
2021/01/25 15:02:04;;;;;;;11.05;4.00;;;6.00;99.90;;;;;;8008955;29;20042;-81
2021/01/25 15:06:05;;;;;;;160.85;62.50;;;6.00;99.90;;;;;;8024747;29;20045;-81
2021/01/25 15:10:08;;;;;;;229.60;92.78;;;4.10;99.90;;;;;;8019013;29;20088;-82
2021/01/25 15:14:09;;;;;;;8.15;7.30;;;4.00;99.90;;;;;;8028977;29;20080;-81
2021/01/25 15:18:20;;;;;;;4.00;1.23;;;4.00;99.60;;;;;;8028806;29;20045;-81
2021/01/25 15:22:22;;;;;;;4.15;2.38;;;6.50;99.90;;;;;;8023012;29;20398;-81
2021/01/25 16:35:05;;;;;;;5.35;2.97;;;3.30;99.90;;;;;;8010801;29;20634;-79
2021/01/25 16:39:10;;;;;;;6.93;3.70;;;3.30;99.90;;;;;;8015229;29;20046;-79
2021/01/25 16:43:13;;;;;;;5.97;2.42;;;3.10;99.90;;;;;;8012634;29;20063;-78
2021/01/25 16:47:14;;;;;;;10.25;3.50;;;3.10;99.90;;;;;;8016649;29;20064;-78
2021/01/25 16:51:16;;;;;;;6.85;2.97;;;3.20;99.90;;;;;;8014530;29;20064;-78
2021/01/25 16:55:17;;;;;;;10.43;3.33;;;3.20;99.90;;;;;;8002648;29;20082;-78
2021/01/25 16:59:19;;;;;;;10.52;3.78;;;3.20;99.90;;;;;;8003331;29;20444;-78
2021/01/25 17:03:20;;;;;;;8.90;4.03;;;3.20;99.90;;;;;;8010675;29;20382;-78
2021/01/25 17:07:22;;;;;;;16.70;4.78;;;3.10;99.90;;;;;;8004062;29;20145;-78
2021/01/25 17:11:28;;;;;;;11.85;4.20;;;3.10;99.90;;;;;;8016495;29;20133;-79
2021/01/25 17:15:30;;;;;;;12.27;4.60;;;3.10;99.90;;;;;;8019033;29;20149;-78
2021/01/25 17:19:32;;;;;;;10.70;4.35;;;3.00;99.90;;;;;;8031447;29;20798;-78
2021/01/25 17:23:33;;;;;;;11.17;4.77;;;3.00;99.90;;;;;;8001877;29;20053;-78
2021/01/25 17:27:35;;;;;;;18.73;7.57;;;3.00;99.90;;;;;;8034171;29;20054;-78
2021/01/25 17:31:39;;;;;;;9.25;4.57;;;3.00;99.90;;;;;;8008542;29;20057;-78
2021/01/25 17:35:42;;;;;;;5.80;3.08;;;2.90;99.90;;;;;;8019737;29;20057;-78
2021/01/25 17:39:43;;;;;;;4.80;2.87;;;2.90;99.90;;;;;;8013299;29;20420;-78
2021/01/25 17:43:45;;;;;;;4.82;2.70;;;2.80;99.90;;;;;;8012917;29;20056;-78
2021/01/25 17:47:47;;;;;;;5.83;2.70;;;2.80;99.90;;;;;;8012893;29;20117;-78
2021/01/25 17:51:49;;;;;;;6.15;3.00;;;2.80;99.90;;;;;;8013798;29;20560;-78
2021/01/25 17:55:50;;;;;;;8.40;3.20;;;2.80;99.90;;;;;;8019042;29;20050;-79
2021/01/25 17:59:52;;;;;;;5.38;2.65;;;2.70;99.90;;;;;;8012284;29;20106;-78
2021/01/25 18:03:53;;;;;;;5.37;2.90;;;2.70;99.90;;;;;;7999142;29;20603;-78
2021/01/25 18:07:57;;;;;;;6.22;3.15;;;2.70;99.90;;;;;;8007238;29;20086;-78
2021/01/25 18:11:58;;;;;;;7.72;4.10;;;2.70;99.90;;;;;;8019582;29;20056;-78
2021/01/25 18:16:00;;;;;;;7.60;3.43;;;2.60;99.90;;;;;;7998955;29;20096;-78
2021/01/25 18:20:03;;;;;;;8.47;3.93;;;2.60;99.90;;;;;;8006735;29;20053;-78
2021/01/25 18:24:06;;;;;;;9.63;4.88;;;2.50;99.80;;;;;;8012470;29;20076;-78
2021/01/25 18:28:07;;;;;;;;;;;2.50;99.90;;;;;;8016916;29;20042;-78
2021/01/25 18:32:08;;;;;;;6.22;2.35;;;3.20;99.90;;;;;;8029255;29;19932;-78
2021/01/25 18:36:11;;;;;;;4.32;2.13;;;2.40;99.90;;;;;;8000562;29;20651;-78
2021/01/25 18:40:13;;;;;;;5.85;2.67;;;2.30;99.90;;;;;;8011151;29;20446;-78
2021/01/25 18:44:15;;;;;;;;;;;2.20;99.90;;;;;;8015099;29;20145;-78
2021/01/25 18:48:16;;;;;;;4.70;2.03;;;2.20;99.90;;;;;;8004385;29;19924;-78
2021/01/25 18:52:19;;;;;;;8.55;2.90;;;2.10;99.90;;;;;;8014588;29;20045;-78
2021/01/25 18:56:20;;;;;;;6.80;2.80;;;2.10;99.90;;;;;;7997252;29;20064;-78
2021/01/25 19:00:24;;;;;;;11.67;3.60;;;2.10;99.90;;;;;;7996073;29;20053;-78
2021/01/25 19:04:28;;;;;;;12.23;5.70;;;2.10;99.90;;;;;;8028868;29;20465;-78
2021/01/25 19:08:30;;;;;;;9.50;3.75;;;2.10;99.90;;;;;;8000624;29;20053;-78
2021/01/25 19:12:31;;;;;;;18.15;7.40;;;2.00;99.90;;;;;;8008532;29;20109;-78
2021/01/25 19:16:33;;;;;;;16.17;8.00;;;0.70;99.80;;;;;;7993701;29;20058;-78
2021/01/25 19:20:37;;;;;;;17.20;7.20;;;1.70;99.90;;;;;;7996175;29;74217;-78
2021/01/25 19:24:39;;;;;;;18.05;7.20;;;2.00;99.90;;;;;;8015708;29;20121;-78
2021/01/25 19:28:44;;;;;;;;;;;2.00;99.90;;;;;;7996378;29;20273;-78
2021/01/25 19:32:46;;;;;;;11.75;5.07;;;1.90;99.90;;;;;;7994992;29;19934;-78
2021/01/25 19:36:48;;;;;;;10.73;4.95;;;2.30;99.90;;;;;;8012259;29;20049;-78
2021/01/25 19:40:50;;;;;;;6.80;3.50;;;1.90;99.90;;;;;;8013832;29;20516;-78
2021/01/25 19:44:51;;;;;;;12.57;6.72;;;1.90;99.90;;;;;;8013651;29;20049;-79
2021/01/25 19:48:53;;;;;;;7.65;4.50;;;1.80;99.90;;;;;;7997211;29;20053;-78
2021/01/25 19:52:55;;;;;;;11.05;6.47;;;1.80;99.90;;;;;;8013305;29;20714;-79
2021/01/25 19:56:56;;;;;;;;;;;-0.50;99.60;;;;;;8007579;29;20068;-78
2021/01/25 20:00:58;;;;;;;5.50;2.72;;;1.70;99.90;;;;;;8024446;29;20035;-78
2021/01/25 20:05:00;;;;;;;6.93;2.10;;;1.70;99.90;;;;;;8028009;29;20179;-78
2021/01/25 20:09:03;;;;;;;6.13;2.15;;;1.70;99.90;;;;;;8016032;29;20234;-78
2021/01/25 20:13:08;;;;;;;5.20;2.22;;;1.70;99.90;;;;;;8026855;29;20057;-78
2021/01/25 20:17:10;;;;;;;4.38;2.00;;;1.70;99.90;;;;;;8019887;29;20081;-78
2021/01/25 20:21:12;;;;;;;5.63;2.65;;;1.60;99.90;;;;;;8012500;29;20057;-79
2021/01/25 20:25:33;;;;;;;7.05;2.72;;;1.60;99.90;;;;;;8014783;29;20057;-78
2021/01/25 20:29:34;;;;;;;4.70;2.42;;;1.60;99.90;;;;;;8017914;29;20505;-79
2021/01/25 20:33:47;;;;;;;6.72;2.58;;;0.60;99.70;;;;;;8021753;29;20053;-79
2021/01/25 20:37:51;;;;;;;7.00;2.88;;;1.50;99.90;;;;;;7990296;29;20072;-78
2021/01/25 20:41:53;;;;;;;7.00;2.33;;;1.50;99.90;;;;;;8007140;29;20568;-79
2021/01/25 20:45:54;;;;;;;5.55;2.15;;;1.50;99.60;;;;;;8019291;29;20057;-79
2021/01/25 20:49:56;;;;;;;5.53;2.25;;;1.50;99.90;;;;;;8021984;29;20061;-77
2021/01/25 20:53:57;;;;;;;5.78;2.20;;;1.50;99.90;;;;;;8011738;29;20092;-78
2021/01/25 20:58:00;;;;;;;6.10;2.80;;;1.60;99.90;;;;;;8032117;29;20064;-78
2021/01/25 21:02:01;;;;;;;4.28;2.22;;;1.50;99.90;;;;;;8023912;29;21237;-78
2021/01/25 21:06:03;;;;;;;8.38;2.35;;;1.50;99.90;;;;;;8010241;29;20581;-78
2021/01/25 21:10:06;;;;;;;5.95;2.38;;;1.50;99.90;;;;;;8023526;29;20053;-79
2021/01/25 21:14:08;;;;;;;6.13;2.75;;;1.50;99.90;;;;;;8027066;29;20065;-78
2021/01/25 21:18:12;;;;;;;6.43;3.42;;;1.60;99.90;;;;;;8009765;29;20656;-78
2021/01/25 21:22:13;;;;;;;6.22;2.83;;;1.60;99.90;;;;;;8021761;29;20092;-78
2021/01/25 21:26:15;;;;;;;4.67;2.17;;;1.60;99.90;;;;;;8021069;29;20185;-78
2021/01/25 21:30:19;;;;;;;4.20;2.13;;;1.60;99.90;;;;;;8025620;29;20479;-78
2021/01/25 21:34:21;;;;;;;9.82;2.53;;;1.60;99.90;;;;;;8026933;29;20049;-79
2021/01/25 21:38:22;;;;;;;3.60;1.83;;;1.70;99.90;;;;;;8007101;29;20161;-79
2021/01/25 21:42:24;;;;;;;5.43;2.00;;;1.70;99.90;;;;;;8006045;29;20088;-78
2021/01/25 21:46:26;;;;;;;5.22;1.92;;;1.70;99.90;;;;;;8014642;29;20553;-78
2021/01/25 21:50:28;;;;;;;4.07;1.90;;;1.70;99.90;;;;;;8030308;29;20551;-78
2021/01/25 21:54:30;;;;;;;4.13;1.90;;;1.60;99.90;;;;;;8022418;29;20055;-79
2021/01/25 21:58:32;;;;;;;3.60;1.38;;;1.60;99.90;;;;;;8026816;29;20548;-78
2021/01/25 22:02:34;;;;;;;6.18;2.10;;;1.60;99.60;;;;;;8007834;29;20052;-79
2021/01/25 22:06:35;;;;;;;4.43;1.88;;;1.60;99.90;;;;;;8012404;29;20057;-79
2021/01/25 22:10:37;;;;;;;3.53;1.80;;;1.50;99.90;;;;;;8024788;29;20054;-78
2021/01/25 22:14:38;;;;;;;3.97;1.75;;;1.50;99.90;;;;;;8005281;29;20880;-78
2021/01/25 22:18:40;;;;;;;6.18;2.75;;;1.50;99.90;;;;;;8038267;29;20148;-78
2021/01/25 22:22:41;;;;;;;5.75;2.15;;;1.50;99.90;;;;;;8006967;29;20053;-79
2021/01/25 22:26:43;;;;;;;9.35;3.38;;;1.50;99.90;;;;;;8006133;29;20046;-78
2021/01/25 22:30:44;;;;;;;6.33;3.43;;;1.40;99.90;;;;;;8016163;29;20778;-79
2021/01/25 22:34:46;;;;;;;7.93;3.70;;;1.40;99.90;;;;;;8014300;29;20174;-79
2021/01/25 22:38:47;;;;;;;7.43;3.10;;;1.40;99.90;;;;;;8009462;29;20053;-78
2021/01/25 22:42:49;;;;;;;5.30;2.20;;;1.40;99.90;;;;;;8022581;29;20460;-79
2021/01/25 22:46:50;;;;;;;8.02;3.00;;;1.40;99.70;;;;;;7999279;29;20065;-79
2021/01/25 22:50:53;;;;;;;6.13;2.95;;;1.30;99.90;;;;;;8005047;29;20053;-78
2021/01/25 22:54:54;;;;;;;5.68;2.28;;;1.40;99.90;;;;;;8014237;29;20056;-78
2021/01/25 22:58:56;;;;;;;3.53;1.97;;;1.30;99.70;;;;;;8011960;29;20060;-79
2021/01/25 23:02:57;;;;;;;3.87;1.53;;;1.40;99.90;;;;;;8022569;29;20465;-79
2021/01/25 23:06:59;;;;;;;2.67;1.17;;;1.30;99.70;;;;;;8014099;29;20041;-79
2021/01/25 23:11:01;;;;;;;3.40;1.38;;;1.30;99.90;;;;;;8014097;29;20105;-79